createdAt,value
2024-01-17T00:00:21.863Z,60
2024-01-17T00:02:52.088Z,59
2024-01-17T00:05:22.245Z,59
2024-01-17T00:07:52.416Z,59
2024-01-17T00:10:22.438Z,59
2024-01-17T00:12:53.072Z,59
2024-01-17T00:15:23.084Z,59
2024-01-17T00:17:53.172Z,59
2024-01-17T00:20:24.095Z,59
2024-01-17T00:22:54.203Z,59
2024-01-17T00:25:24.420Z,59
2024-01-17T00:27:54.469Z,59
2024-01-17T00:30:25.537Z,59
2024-01-17T00:32:55.841Z,59
2024-01-17T00:35:26.033Z,59
2024-01-17T00:37:56.231Z,59
2024-01-17T00:40:26.294Z,59
2024-01-17T00:42:56.349Z,59
2024-01-17T00:45:26.612Z,59
2024-01-17T00:47:57.508Z,59
2024-01-17T00:50:27.793Z,60
2024-01-17T00:52:58.289Z,60
2024-01-17T00:55:28.486Z,60
2024-01-17T00:57:58.616Z,60
2024-01-17T01:00:29.724Z,59
2024-01-17T01:03:00.343Z,59
2024-01-17T01:05:30.599Z,59
2024-01-17T01:08:00.799Z,60
2024-01-17T01:10:31.192Z,59
2024-01-17T01:13:01.264Z,59
2024-01-17T01:15:31.639Z,59
2024-01-17T01:18:02.002Z,59
2024-01-17T01:20:32.433Z,59
2024-01-17T01:23:03.235Z,59
2024-01-17T01:25:33.970Z,59
2024-01-17T01:28:04.395Z,59
2024-01-17T01:30:35.081Z,59
2024-01-17T01:33:05.211Z,60
2024-01-17T01:35:35.735Z,60
2024-01-17T01:38:06.191Z,59
2024-01-17T01:40:36.894Z,59
2024-01-17T01:43:07.170Z,59
2024-01-17T01:45:37.765Z,59
2024-01-17T01:48:08.179Z,59
2024-01-17T01:50:38.593Z,59
2024-01-17T01:53:08.784Z,60
2024-01-17T01:55:39.626Z,60
2024-01-17T01:58:09.769Z,59
2024-01-17T02:00:40.548Z,60
2024-01-17T02:03:11.144Z,60
2024-01-17T02:05:41.347Z,59
2024-01-17T02:08:11.612Z,59
2024-01-17T02:10:40.634Z,60
2024-01-17T02:13:11.074Z,59
2024-01-17T02:15:41.596Z,60
2024-01-17T02:18:11.638Z,60
2024-01-17T02:20:42.254Z,60
2024-01-17T02:23:12.879Z,60
2024-01-17T02:25:43.190Z,60
2024-01-17T02:28:13.460Z,60
2024-01-17T02:30:44.044Z,60
2024-01-17T02:33:15.035Z,60
2024-01-17T02:35:45.609Z,60
2024-01-17T02:38:16.082Z,60
2024-01-17T02:40:46.865Z,60
2024-01-17T02:43:17.204Z,60
2024-01-17T02:45:47.695Z,60
2024-01-17T02:48:18.092Z,60
2024-01-17T02:50:48.075Z,60
2024-01-17T02:53:18.408Z,60
2024-01-17T02:55:48.704Z,60
2024-01-17T02:58:19.489Z,60
2024-01-17T03:00:50.361Z,60
2024-01-17T03:03:20.795Z,60
2024-01-17T03:05:51.188Z,60
2024-01-17T03:08:21.640Z,60
2024-01-17T03:10:52.058Z,60
2024-01-17T03:13:22.086Z,61
2024-01-17T03:15:52.668Z,61
2024-01-17T03:18:23.218Z,61
2024-01-17T03:20:53.520Z,61
2024-01-17T03:23:23.813Z,61
2024-01-17T03:25:54.693Z,61
2024-01-17T03:28:25.033Z,62
2024-01-17T03:30:55.811Z,62
2024-01-17T03:33:26.298Z,62
2024-01-17T03:35:56.800Z,62
2024-01-17T03:38:27.310Z,62
2024-01-17T03:40:57.493Z,62
2024-01-17T03:43:27.748Z,61
2024-01-17T03:45:58.082Z,61
2024-01-17T03:48:28.923Z,61
2024-01-17T03:50:59.246Z,61
2024-01-17T03:53:29.685Z,61
2024-01-17T03:55:59.858Z,61
2024-01-17T03:58:32.128Z,61
2024-01-17T04:01:00.501Z,61
2024-01-17T04:03:30.729Z,61
2024-01-17T04:06:00.983Z,61
2024-01-17T04:08:31.092Z,61
2024-01-17T04:11:01.276Z,61
2024-01-17T04:13:31.787Z,61
2024-01-17T04:16:02.279Z,61
2024-01-17T04:18:32.677Z,61
2024-01-17T04:21:03.541Z,61
2024-01-17T04:23:33.608Z,61
2024-01-17T04:26:03.894Z,60
2024-01-17T04:28:34.261Z,60
2024-01-17T04:31:04.824Z,60
2024-01-17T04:33:35.229Z,60
2024-01-17T04:36:05.621Z,60
2024-01-17T04:38:35.732Z,60
2024-01-17T04:41:06.222Z,60
2024-01-17T04:43:36.541Z,60
2024-01-17T04:46:06.706Z,60
2024-01-17T04:48:36.950Z,60
2024-01-17T04:51:07.242Z,60
2024-01-17T04:53:37.590Z,60
2024-01-17T04:56:08.039Z,60
2024-01-17T04:58:38.109Z,60
2024-01-17T05:01:08.622Z,60
2024-01-17T05:03:38.651Z,60
2024-01-17T05:06:09.121Z,61
2024-01-17T05:08:39.360Z,60
2024-01-17T05:11:10.860Z,60
2024-01-17T05:13:41.404Z,60
2024-01-17T05:16:11.540Z,60
2024-01-17T05:18:41.799Z,60
2024-01-17T05:21:12.046Z,60
2024-01-17T05:23:42.677Z,60
2024-01-17T05:26:12.951Z,60
2024-01-17T05:28:43.312Z,60
2024-01-17T05:31:13.506Z,60
2024-01-17T05:33:43.860Z,60
2024-01-17T05:36:14.376Z,60
2024-01-17T05:38:44.394Z,60
2024-01-17T05:41:14.709Z,60
2024-01-17T05:43:44.821Z,60
2024-01-17T05:46:19.254Z,60
2024-01-17T05:48:45.696Z,60
2024-01-17T05:51:16.249Z,60
2024-01-17T05:53:46.635Z,60
2024-01-17T05:56:16.969Z,60
2024-01-17T05:58:47.471Z,60
2024-01-17T06:01:17.805Z,60
2024-01-17T06:03:48.333Z,60
2024-01-17T06:06:18.457Z,60
2024-01-17T06:08:48.218Z,60
2024-01-17T06:11:18.841Z,60
2024-01-17T06:13:48.837Z,60
2024-01-17T06:16:20.534Z,60
2024-01-17T06:18:53.063Z,60
2024-01-17T06:21:22.004Z,60
2024-01-17T06:23:51.768Z,60
2024-01-17T06:26:21.893Z,60
2024-01-17T06:28:52.417Z,60
2024-01-17T06:31:22.735Z,60
2024-01-17T06:33:53.240Z,60
2024-01-17T06:36:23.386Z,60
2024-01-17T06:38:53.707Z,60
2024-01-17T06:41:23.709Z,60
2024-01-17T06:43:53.976Z,60
2024-01-17T06:46:24.306Z,60
2024-01-17T06:48:55.146Z,60
2024-01-17T06:51:25.617Z,60
2024-01-17T06:53:56.070Z,60
2024-01-17T06:56:26.331Z,60
2024-01-17T06:58:56.580Z,60
2024-01-17T07:01:26.753Z,60
2024-01-17T07:03:57.028Z,60
2024-01-17T07:06:27.509Z,60
2024-01-17T07:08:57.605Z,60
2024-01-17T07:11:27.895Z,60
2024-01-17T07:13:56.621Z,60
2024-01-17T07:16:26.823Z,60
2024-01-17T07:18:57.296Z,60
2024-01-17T07:21:28.001Z,60
2024-01-17T07:23:58.248Z,60
2024-01-17T07:26:28.663Z,60
2024-01-17T07:28:59.127Z,60
2024-01-17T07:31:29.437Z,60
2024-01-17T07:33:59.932Z,60
2024-01-17T07:36:29.947Z,60
2024-01-17T07:39:00.487Z,60
2024-01-17T07:41:31.376Z,60
2024-01-17T07:44:01.566Z,59
2024-01-17T07:46:31.526Z,60
2024-01-17T07:49:02.140Z,60
2024-01-17T07:51:31.850Z,59
2024-01-17T07:54:02.158Z,59
2024-01-17T07:56:32.332Z,59
2024-01-17T07:59:02.275Z,59
2024-01-17T08:01:32.334Z,59
2024-01-17T08:04:03.037Z,58
2024-01-17T08:06:33.254Z,58
2024-01-17T08:09:03.993Z,58
2024-01-17T08:11:34.304Z,58
2024-01-17T08:14:04.283Z,58
2024-01-17T08:16:34.191Z,58
2024-01-17T08:19:04.292Z,58
2024-01-17T08:21:34.630Z,58
2024-01-17T08:24:04.745Z,58
2024-01-17T08:26:34.688Z,57
2024-01-17T08:29:04.747Z,58
2024-01-17T08:31:35.087Z,58
2024-01-17T08:34:05.793Z,57
2024-01-17T08:36:35.664Z,57
2024-01-17T08:39:06.283Z,57
2024-01-17T08:41:36.215Z,57
2024-01-17T08:44:05.263Z,58
2024-01-17T08:46:35.373Z,57
2024-01-17T08:49:05.454Z,57
2024-01-17T08:51:36.391Z,58
2024-01-17T08:54:07.338Z,58
2024-01-17T08:56:37.344Z,57
2024-01-17T08:59:08.306Z,57
2024-01-17T09:01:38.543Z,57
2024-01-17T09:04:08.663Z,57
2024-01-17T09:06:39.536Z,57
2024-01-17T09:09:09.993Z,57
2024-01-17T09:11:40.855Z,57
2024-01-17T09:14:10.805Z,57
2024-01-17T09:16:41.334Z,57
2024-01-17T09:19:12.299Z,57
2024-01-17T09:21:42.342Z,57
2024-01-17T09:24:13.083Z,57
2024-01-17T09:26:43.703Z,56
2024-01-17T09:29:14.363Z,56
2024-01-17T09:31:44.986Z,56
2024-01-17T09:34:14.996Z,56
2024-01-17T09:36:45.172Z,56
2024-01-17T09:39:15.865Z,56
2024-01-17T09:41:46.231Z,56
2024-01-17T09:44:17.064Z,56
2024-01-17T09:46:47.965Z,56
2024-01-17T09:49:18.691Z,56
2024-01-17T09:51:48.895Z,56
2024-01-17T09:54:19.741Z,56
2024-01-17T09:56:50.727Z,56
2024-01-17T09:59:21.413Z,57
2024-01-17T10:01:51.750Z,57
2024-01-17T10:04:22.051Z,57
2024-01-17T10:06:52.515Z,56
2024-01-17T10:09:23.124Z,56
2024-01-17T10:11:54.857Z,57
2024-01-17T10:14:25.375Z,57
2024-01-17T10:16:55.076Z,57
2024-01-17T10:19:26.022Z,57
2024-01-17T10:21:56.477Z,56
2024-01-17T10:24:27.331Z,57
2024-01-17T10:26:58.071Z,57
2024-01-17T10:29:28.251Z,58
2024-01-17T10:31:58.740Z,58
2024-01-17T10:34:29.669Z,58
2024-01-17T10:37:00.364Z,57
2024-01-17T10:39:30.898Z,57
2024-01-17T10:42:01.588Z,57
2024-01-17T10:44:31.621Z,57
2024-01-17T10:47:01.727Z,57
2024-01-17T10:49:32.108Z,57
2024-01-17T10:52:02.364Z,57
2024-01-17T10:54:32.996Z,57
2024-01-17T10:57:03.680Z,57
2024-01-17T10:59:33.992Z,57
2024-01-17T11:02:04.393Z,58
2024-01-17T11:04:34.649Z,57
2024-01-17T11:07:04.691Z,57
2024-01-17T11:09:34.855Z,57
2024-01-17T11:12:05.070Z,57
2024-01-17T11:14:35.503Z,57
2024-01-17T11:17:05.623Z,57
2024-01-17T11:19:35.974Z,58
2024-01-17T11:22:05.942Z,57
2024-01-17T11:24:36.529Z,57
2024-01-17T11:27:06.818Z,57
2024-01-17T11:29:36.833Z,58
2024-01-17T11:32:06.607Z,57
2024-01-17T11:34:36.866Z,57
2024-01-17T11:37:06.780Z,57
2024-01-17T11:39:36.775Z,57
2024-01-17T11:42:06.757Z,57
2024-01-17T11:44:37.124Z,57
2024-01-17T11:47:06.964Z,57
2024-01-17T11:49:37.220Z,57
2024-01-17T11:52:07.706Z,57
2024-01-17T11:54:37.842Z,57
2024-01-17T11:57:07.998Z,57
2024-01-17T11:59:38.021Z,57
2024-01-17T12:02:08.197Z,57
2024-01-17T12:04:38.252Z,56
2024-01-17T12:07:08.269Z,56
2024-01-17T12:09:38.395Z,56
2024-01-17T12:12:08.567Z,56
2024-01-17T12:14:38.759Z,56
2024-01-17T12:17:08.549Z,55
2024-01-17T12:19:38.745Z,55
2024-01-17T12:22:08.744Z,55
2024-01-17T12:24:43.471Z,55
2024-01-17T12:27:09.156Z,55
2024-01-17T12:29:39.049Z,54
2024-01-17T12:32:13.082Z,54
2024-01-17T12:34:43.087Z,55
2024-01-17T12:37:12.981Z,55
2024-01-17T12:39:42.985Z,55
2024-01-17T12:42:13.041Z,55
2024-01-17T12:44:43.018Z,56
2024-01-17T12:47:12.986Z,55
2024-01-17T12:49:42.994Z,56
2024-01-17T12:52:12.899Z,56
2024-01-17T12:54:42.759Z,56
2024-01-17T12:57:12.867Z,56
2024-01-17T12:59:43.108Z,56
2024-01-17T13:02:12.870Z,56
2024-01-17T13:04:43.148Z,56
2024-01-17T13:07:13.854Z,56
2024-01-17T13:09:43.029Z,56
2024-01-17T13:12:13.098Z,56
2024-01-17T13:14:46.716Z,56
2024-01-17T13:17:16.649Z,56
2024-01-17T13:19:49.779Z,56
2024-01-17T13:22:19.978Z,56
2024-01-17T13:24:50.165Z,56
2024-01-17T13:27:20.136Z,56
2024-01-17T13:29:50.221Z,56
2024-01-17T13:32:20.521Z,56
2024-01-17T13:34:50.089Z,56
2024-01-17T13:37:19.999Z,56
2024-01-17T13:39:50.216Z,56
2024-01-17T13:42:20.242Z,56
2024-01-17T13:44:50.537Z,56
2024-01-17T13:47:20.717Z,56
2024-01-17T13:49:50.892Z,56
2024-01-17T13:52:20.611Z,56
2024-01-17T13:54:54.203Z,56
2024-01-17T13:57:24.252Z,57
2024-01-17T13:59:54.148Z,56
2024-01-17T14:02:24.136Z,57
2024-01-17T14:04:55.091Z,57
2024-01-17T14:07:26.447Z,57
2024-01-17T14:09:57.047Z,57
2024-01-17T14:12:27.459Z,57
2024-01-17T14:14:58.834Z,57
2024-01-17T14:17:29.002Z,57
2024-01-17T14:19:59.001Z,56
2024-01-17T14:22:28.890Z,57
2024-01-17T14:24:59.125Z,57
2024-01-17T14:27:29.279Z,57
2024-01-17T14:29:59.889Z,57
2024-01-17T14:32:29.990Z,57
2024-01-17T14:35:00.211Z,57
2024-01-17T14:37:30.577Z,57
2024-01-17T14:40:00.598Z,58
2024-01-17T14:42:30.680Z,58
2024-01-17T14:45:00.839Z,58
2024-01-17T14:47:30.672Z,58
2024-01-17T14:50:00.955Z,57
2024-01-17T14:52:30.926Z,57
2024-01-17T14:55:01.303Z,58
2024-01-17T14:57:31.274Z,58
2024-01-17T15:00:01.519Z,57
2024-01-17T15:02:31.640Z,58
2024-01-17T15:05:02.114Z,58
2024-01-17T15:07:32.548Z,58
2024-01-17T15:10:03.112Z,57
2024-01-17T15:12:33.489Z,57
2024-01-17T15:15:03.639Z,58
2024-01-17T15:17:33.874Z,58
2024-01-17T15:20:03.984Z,58
2024-01-17T15:22:34.082Z,58
2024-01-17T15:25:05.729Z,58
2024-01-17T15:27:34.261Z,58
2024-01-17T15:30:04.342Z,58
2024-01-17T15:32:35.256Z,58
2024-01-17T15:35:05.425Z,58
2024-01-17T15:37:35.254Z,59
2024-01-17T15:40:05.356Z,58
2024-01-17T15:42:35.253Z,59
2024-01-17T15:45:05.528Z,59
2024-01-17T15:47:35.819Z,59
2024-01-17T15:50:05.786Z,59
2024-01-17T15:52:35.745Z,60
2024-01-17T15:55:06.169Z,59
2024-01-17T15:57:36.394Z,60
2024-01-17T16:00:06.465Z,60
2024-01-17T16:02:37.817Z,60
2024-01-17T16:05:06.753Z,60
2024-01-17T16:07:36.955Z,60
2024-01-17T16:10:06.990Z,60
2024-01-17T16:12:37.069Z,60
2024-01-17T16:15:10.483Z,60
2024-01-17T16:17:37.402Z,60
2024-01-17T16:20:07.592Z,60
2024-01-17T16:22:37.915Z,60
2024-01-17T16:25:07.870Z,60
2024-01-17T16:27:38.006Z,61
2024-01-17T16:30:08.369Z,61
2024-01-17T16:32:39.082Z,60
2024-01-17T16:35:09.065Z,61
2024-01-17T16:37:39.606Z,61
2024-01-17T16:40:09.408Z,61
2024-01-17T16:42:39.530Z,61
2024-01-17T16:45:09.580Z,61
2024-01-17T16:47:39.733Z,61
2024-01-17T16:50:09.979Z,61
2024-01-17T16:52:40.068Z,61
2024-01-17T16:55:10.105Z,62
2024-01-17T16:57:39.914Z,62
2024-01-17T17:00:09.932Z,62
2024-01-17T17:02:40.133Z,62
2024-01-17T17:05:10.104Z,62
2024-01-17T17:07:40.149Z,63
2024-01-17T17:10:10.475Z,62
2024-01-17T17:12:40.532Z,62
2024-01-17T17:15:10.301Z,63
2024-01-17T17:17:40.571Z,63
2024-01-17T17:20:10.802Z,62
2024-01-17T17:22:40.933Z,63
2024-01-17T17:25:11.221Z,63
2024-01-17T17:27:41.452Z,63
2024-01-17T17:30:11.518Z,63
2024-01-17T17:32:41.625Z,63
2024-01-17T17:35:11.541Z,63
2024-01-17T17:37:41.475Z,63
2024-01-17T17:40:11.434Z,63
2024-01-17T17:42:41.459Z,63
2024-01-17T17:45:11.433Z,64
2024-01-17T17:47:41.656Z,64
2024-01-17T17:50:11.559Z,64
2024-01-17T17:52:41.444Z,64
2024-01-17T17:55:11.729Z,64
2024-01-17T17:57:41.798Z,64
2024-01-17T18:00:11.883Z,64
2024-01-17T18:02:41.779Z,65
2024-01-17T18:05:11.876Z,64
2024-01-17T18:07:42.017Z,64
2024-01-17T18:10:12.114Z,64
2024-01-17T18:12:42.025Z,64
2024-01-17T18:15:12.215Z,64
2024-01-17T18:17:42.712Z,65
2024-01-17T18:20:12.698Z,64
2024-01-17T18:22:42.619Z,65
2024-01-17T18:25:12.810Z,65
2024-01-17T18:27:42.774Z,66
2024-01-17T18:30:12.898Z,67
2024-01-17T18:32:43.166Z,67
2024-01-17T18:35:13.291Z,68
2024-01-17T18:37:43.403Z,69
2024-01-17T18:40:13.446Z,70
2024-01-17T18:42:43.457Z,70
2024-01-17T18:45:13.575Z,70
2024-01-17T18:47:43.690Z,70
2024-01-17T18:50:13.725Z,70
2024-01-17T18:52:43.825Z,69
2024-01-17T18:55:13.871Z,70
2024-01-17T18:57:43.534Z,70
2024-01-17T19:00:13.658Z,70
2024-01-17T19:02:47.168Z,71
2024-01-17T19:05:16.939Z,71
2024-01-17T19:07:47.027Z,71
2024-01-17T19:10:17.150Z,71
2024-01-17T19:12:45.707Z,73
2024-01-17T19:15:15.962Z,73
2024-01-17T19:17:46.322Z,72
2024-01-17T19:20:16.220Z,73
2024-01-17T19:22:46.225Z,73
2024-01-17T19:25:16.318Z,73
2024-01-17T19:27:46.602Z,73
2024-01-17T19:30:16.573Z,74
2024-01-17T19:32:46.682Z,73
2024-01-17T19:35:16.510Z,74
2024-01-17T19:37:46.593Z,73
2024-01-17T19:40:16.872Z,73
2024-01-17T19:42:46.836Z,74
2024-01-17T19:45:16.697Z,73
2024-01-17T19:47:46.658Z,74
2024-01-17T19:50:16.588Z,74
2024-01-17T19:52:46.547Z,74
2024-01-17T19:55:17.863Z,74
2024-01-17T19:57:46.996Z,76
2024-01-17T20:00:16.992Z,76
2024-01-17T20:02:48.343Z,76
2024-01-17T20:05:18.392Z,76
2024-01-17T20:07:48.244Z,77
2024-01-17T20:10:18.154Z,77
2024-01-17T20:12:48.331Z,78
2024-01-17T20:15:18.433Z,78
2024-01-17T20:17:48.468Z,78
2024-01-17T20:20:18.577Z,78
2024-01-17T20:22:48.678Z,79
2024-01-17T20:25:18.482Z,79
2024-01-17T20:27:48.818Z,79
2024-01-17T20:30:18.891Z,79
2024-01-17T20:32:49.422Z,79
2024-01-17T20:35:18.779Z,79
2024-01-17T20:37:48.835Z,78
2024-01-17T20:40:18.832Z,78
2024-01-17T20:42:49.096Z,78
2024-01-17T20:45:19.170Z,79
2024-01-17T20:47:49.523Z,78
2024-01-17T20:50:19.490Z,79
2024-01-17T20:52:49.627Z,80
2024-01-17T20:55:20.606Z,79
2024-01-17T20:57:50.552Z,79
2024-01-17T21:00:20.954Z,79
2024-01-17T21:02:50.989Z,79
2024-01-17T21:05:20.925Z,79
2024-01-17T21:07:50.896Z,79
2024-01-17T21:10:20.729Z,79
2024-01-17T21:12:50.846Z,79
2024-01-17T21:15:21.034Z,78
2024-01-17T21:17:51.067Z,78
2024-01-17T21:20:21.364Z,79
2024-01-17T21:25:21.998Z,80
2024-01-17T21:27:52.150Z,80
2024-01-17T21:30:22.167Z,80
2024-01-17T21:32:52.425Z,80
2024-01-17T21:35:22.550Z,79
2024-01-17T21:37:52.493Z,80
2024-01-17T21:40:22.978Z,80
2024-01-17T21:42:53.042Z,80
2024-01-17T21:45:23.621Z,80
2024-01-17T21:47:53.341Z,80
2024-01-17T21:50:23.616Z,80
2024-01-17T21:52:53.680Z,80
2024-01-17T21:55:24.652Z,80
2024-01-17T21:57:55.779Z,80
2024-01-17T22:00:25.916Z,79
2024-01-17T22:02:56.557Z,79
2024-01-17T22:05:27.097Z,79
2024-01-17T22:07:57.034Z,79
2024-01-17T22:10:27.250Z,79
2024-01-17T22:12:57.392Z,79
2024-01-17T22:15:27.921Z,80
2024-01-17T22:17:58.060Z,80
2024-01-17T22:20:27.972Z,79
2024-01-17T22:22:58.217Z,79
2024-01-17T22:25:28.457Z,79
2024-01-17T22:27:58.496Z,79
2024-01-17T22:30:28.851Z,78
2024-01-17T22:32:59.077Z,78
2024-01-17T22:35:29.220Z,78
2024-01-17T22:37:59.403Z,78
2024-01-17T22:40:29.354Z,77
2024-01-17T22:42:59.341Z,77
2024-01-17T22:45:29.658Z,77
2024-01-17T22:48:00.585Z,77
2024-01-17T22:50:29.960Z,77
2024-01-17T22:53:02.607Z,77
2024-01-17T22:55:30.458Z,76
2024-01-17T22:58:00.612Z,76
2024-01-17T23:00:30.832Z,76
2024-01-17T23:03:01.631Z,75
2024-01-17T23:05:31.608Z,75
2024-01-17T23:08:05.495Z,75
2024-01-17T23:10:32.354Z,75
2024-01-17T23:13:02.810Z,75
2024-01-17T23:15:33.076Z,75
2024-01-17T23:18:03.221Z,75
2024-01-17T23:20:33.379Z,75
2024-01-17T23:23:03.443Z,75
2024-01-17T23:25:33.915Z,75
2024-01-17T23:28:04.187Z,75
2024-01-17T23:30:34.544Z,75
2024-01-17T23:33:05.209Z,75
2024-01-17T23:35:35.549Z,75
2024-01-17T23:38:05.640Z,75
2024-01-17T23:40:35.720Z,75
2024-01-17T23:43:06.270Z,74
2024-01-17T23:45:36.619Z,75
2024-01-17T23:48:07.483Z,74
2024-01-17T23:50:38.109Z,74
2024-01-17T23:53:08.320Z,74
2024-01-17T23:55:38.515Z,74
2024-01-17T23:58:08.817Z,74
